sensor_id;sensor_type;location;lat;lon;timestamp;P1;durP1;ratioP1;P2;durP2;ratioP2
40286;SDS011;25998;46.604;13.610;2023-08-20T00:02:35;9.50;;;8.70;;
40286;SDS011;25998;46.604;13.610;2023-08-20T00:05:48;10.02;;;9.02;;
40286;SDS011;25998;46.604;13.610;2023-08-20T00:08:59;9.93;;;9.02;;
40286;SDS011;25998;46.604;13.610;2023-08-20T00:12:10;11.27;;;9.40;;
40286;SDS011;25998;46.604;13.610;2023-08-20T00:15:21;10.30;;;9.30;;
40286;SDS011;25998;46.604;13.610;2023-08-20T00:18:37;9.90;;;8.95;;
40286;SDS011;25998;46.604;13.610;2023-08-20T00:21:48;10.45;;;9.45;;
40286;SDS011;25998;46.604;13.610;2023-08-20T00:24:59;10.88;;;9.88;;
40286;SDS011;25998;46.604;13.610;2023-08-20T00:28:11;10.07;;;9.18;;
40286;SDS011;25998;46.604;13.610;2023-08-20T00:31:21;10.13;;;9.10;;
40286;SDS011;25998;46.604;13.610;2023-08-20T00:34:32;10.15;;;9.15;;
40286;SDS011;25998;46.604;13.610;2023-08-20T00:37:43;10.38;;;9.52;;
40286;SDS011;25998;46.604;13.610;2023-08-20T00:40:54;10.40;;;9.43;;
40286;SDS011;25998;46.604;13.610;2023-08-20T00:44:05;10.43;;;9.43;;
40286;SDS011;25998;46.604;13.610;2023-08-20T00:47:16;10.45;;;9.45;;
40286;SDS011;25998;46.604;13.610;2023-08-20T00:50:28;10.05;;;9.13;;
40286;SDS011;25998;46.604;13.610;2023-08-20T00:53:39;10.55;;;9.32;;
40286;SDS011;25998;46.604;13.610;2023-08-20T00:56:50;11.52;;;9.88;;
40286;SDS011;25998;46.604;13.610;2023-08-20T01:00:02;10.35;;;9.45;;
40286;SDS011;25998;46.604;13.610;2023-08-20T01:03:22;10.35;;;9.43;;
40286;SDS011;25998;46.604;13.610;2023-08-20T01:09:50;10.65;;;9.65;;
40286;SDS011;25998;46.604;13.610;2023-08-20T01:13:17;10.77;;;9.68;;
40286;SDS011;25998;46.604;13.610;2023-08-20T01:16:29;11.07;;;10.07;;
40286;SDS011;25998;46.604;13.610;2023-08-20T01:19:40;10.77;;;9.75;;
40286;SDS011;25998;46.604;13.610;2023-08-20T01:22:56;10.65;;;9.55;;
40286;SDS011;25998;46.604;13.610;2023-08-20T01:26:17;10.57;;;9.57;;
40286;SDS011;25998;46.604;13.610;2023-08-20T01:29:46;11.45;;;10.40;;
40286;SDS011;25998;46.604;13.610;2023-08-20T01:32:57;11.05;;;10.05;;
40286;SDS011;25998;46.604;13.610;2023-08-20T01:36:09;10.93;;;9.82;;
40286;SDS011;25998;46.604;13.610;2023-08-20T01:39:19;11.35;;;10.25;;
40286;SDS011;25998;46.604;13.610;2023-08-20T01:42:30;11.02;;;10.00;;
40286;SDS011;25998;46.604;13.610;2023-08-20T01:45:41;12.10;;;9.88;;
40286;SDS011;25998;46.604;13.610;2023-08-20T01:48:53;10.82;;;9.73;;
40286;SDS011;25998;46.604;13.610;2023-08-20T01:52:03;10.45;;;9.55;;
40286;SDS011;25998;46.604;13.610;2023-08-20T01:55:14;11.75;;;10.75;;
40286;SDS011;25998;46.604;13.610;2023-08-20T01:58:25;10.18;;;9.27;;
40286;SDS011;25998;46.604;13.610;2023-08-20T02:01:36;11.20;;;10.15;;
40286;SDS011;25998;46.604;13.610;2023-08-20T02:04:47;11.32;;;10.23;;
40286;SDS011;25998;46.604;13.610;2023-08-20T02:07:58;10.63;;;9.63;;
40286;SDS011;25998;46.604;13.610;2023-08-20T02:11:09;11.07;;;9.38;;
40286;SDS011;25998;46.604;13.610;2023-08-20T02:14:19;11.20;;;10.20;;
40286;SDS011;25998;46.604;13.610;2023-08-20T02:17:30;11.00;;;9.98;;
40286;SDS011;25998;46.604;13.610;2023-08-20T02:20:42;11.73;;;10.45;;
40286;SDS011;25998;46.604;13.610;2023-08-20T02:23:53;11.32;;;10.25;;
40286;SDS011;25998;46.604;13.610;2023-08-20T02:27:04;11.50;;;10.40;;
40286;SDS011;25998;46.604;13.610;2023-08-20T02:30:15;10.55;;;9.55;;
40286;SDS011;25998;46.604;13.610;2023-08-20T02:33:26;10.60;;;9.68;;
40286;SDS011;25998;46.604;13.610;2023-08-20T02:36:37;11.02;;;10.02;;
40286;SDS011;25998;46.604;13.610;2023-08-20T02:39:48;11.93;;;10.82;;
40286;SDS011;25998;46.604;13.610;2023-08-20T02:42:58;11.88;;;10.73;;
40286;SDS011;25998;46.604;13.610;2023-08-20T02:46:09;11.05;;;10.05;;
40286;SDS011;25998;46.604;13.610;2023-08-20T02:49:20;10.43;;;9.43;;
40286;SDS011;25998;46.604;13.610;2023-08-20T02:52:31;11.45;;;10.35;;
40286;SDS011;25998;46.604;13.610;2023-08-20T02:55:42;11.48;;;10.38;;
40286;SDS011;25998;46.604;13.610;2023-08-20T02:58:53;10.75;;;9.85;;
40286;SDS011;25998;46.604;13.610;2023-08-20T03:02:04;11.07;;;9.98;;
40286;SDS011;25998;46.604;13.610;2023-08-20T03:05:14;10.32;;;9.38;;
40286;SDS011;25998;46.604;13.610;2023-08-20T03:08:25;11.65;;;9.82;;
40286;SDS011;25998;46.604;13.610;2023-08-20T03:11:36;11.73;;;10.60;;
40286;SDS011;25998;46.604;13.610;2023-08-20T03:14:47;11.32;;;10.27;;
40286;SDS011;25998;46.604;13.610;2023-08-20T03:17:58;10.70;;;9.60;;
40286;SDS011;25998;46.604;13.610;2023-08-20T03:21:08;11.77;;;10.52;;
40286;SDS011;25998;46.604;13.610;2023-08-20T03:24:19;10.70;;;9.60;;
40286;SDS011;25998;46.604;13.610;2023-08-20T03:27:30;10.82;;;9.73;;
40286;SDS011;25998;46.604;13.610;2023-08-20T03:30:41;11.55;;;10.35;;
40286;SDS011;25998;46.604;13.610;2023-08-20T03:33:52;11.57;;;10.43;;
40286;SDS011;25998;46.604;13.610;2023-08-20T03:37:03;12.10;;;10.98;;
40286;SDS011;25998;46.604;13.610;2023-08-20T03:40:14;10.05;;;9.15;;
40286;SDS011;25998;46.604;13.610;2023-08-20T03:43:25;9.70;;;8.70;;
40286;SDS011;25998;46.604;13.610;2023-08-20T03:46:36;11.35;;;10.07;;
40286;SDS011;25998;46.604;13.610;2023-08-20T03:49:47;10.18;;;9.25;;
40286;SDS011;25998;46.604;13.610;2023-08-20T03:52:58;11.60;;;10.30;;
40286;SDS011;25998;46.604;13.610;2023-08-20T03:56:09;11.77;;;10.00;;
40286;SDS011;25998;46.604;13.610;2023-08-20T03:59:20;11.25;;;10.15;;
40286;SDS011;25998;46.604;13.610;2023-08-20T04:02:31;11.98;;;10.52;;
40286;SDS011;25998;46.604;13.610;2023-08-20T04:05:41;11.48;;;9.98;;
40286;SDS011;25998;46.604;13.610;2023-08-20T04:08:52;11.25;;;10.15;;
40286;SDS011;25998;46.604;13.610;2023-08-20T04:12:03;11.63;;;10.23;;
40286;SDS011;25998;46.604;13.610;2023-08-20T04:15:15;12.95;;;10.27;;
40286;SDS011;25998;46.604;13.610;2023-08-20T04:18:26;10.73;;;9.82;;
40286;SDS011;25998;46.604;13.610;2023-08-20T04:21:37;11.77;;;10.40;;
40286;SDS011;25998;46.604;13.610;2023-08-20T04:24:48;11.43;;;10.20;;
40286;SDS011;25998;46.604;13.610;2023-08-20T04:27:59;11.52;;;9.63;;
40286;SDS011;25998;46.604;13.610;2023-08-20T04:31:09;11.35;;;9.70;;
40286;SDS011;25998;46.604;13.610;2023-08-20T04:34:20;11.50;;;10.38;;
40286;SDS011;25998;46.604;13.610;2023-08-20T04:37:31;11.02;;;9.85;;
40286;SDS011;25998;46.604;13.610;2023-08-20T04:40:42;11.07;;;9.98;;
40286;SDS011;25998;46.604;13.610;2023-08-20T04:43:56;12.50;;;10.85;;
40286;SDS011;25998;46.604;13.610;2023-08-20T04:47:10;12.13;;;10.93;;
40286;SDS011;25998;46.604;13.610;2023-08-20T04:50:23;10.85;;;9.77;;
40286;SDS011;25998;46.604;13.610;2023-08-20T04:53:34;11.32;;;10.27;;
40286;SDS011;25998;46.604;13.610;2023-08-20T04:56:45;13.43;;;11.77;;
40286;SDS011;25998;46.604;13.610;2023-08-20T04:59:56;11.77;;;10.57;;
40286;SDS011;25998;46.604;13.610;2023-08-20T05:03:07;11.75;;;10.55;;
40286;SDS011;25998;46.604;13.610;2023-08-20T05:06:18;11.95;;;10.77;;
40286;SDS011;25998;46.604;13.610;2023-08-20T05:09:28;10.68;;;9.57;;
40286;SDS011;25998;46.604;13.610;2023-08-20T05:12:39;11.55;;;10.55;;
40286;SDS011;25998;46.604;13.610;2023-08-20T05:15:50;11.40;;;10.35;;
40286;SDS011;25998;46.604;13.610;2023-08-20T05:19:01;11.55;;;10.32;;
40286;SDS011;25998;46.604;13.610;2023-08-20T05:22:12;11.63;;;10.43;;
40286;SDS011;25998;46.604;13.610;2023-08-20T05:25:23;11.68;;;10.68;;
40286;SDS011;25998;46.604;13.610;2023-08-20T05:28:34;12.43;;;11.10;;
40286;SDS011;25998;46.604;13.610;2023-08-20T05:31:45;10.40;;;9.50;;
40286;SDS011;25998;46.604;13.610;2023-08-20T05:34:56;12.00;;;10.63;;
40286;SDS011;25998;46.604;13.610;2023-08-20T05:38:07;11.45;;;10.25;;
40286;SDS011;25998;46.604;13.610;2023-08-20T05:41:18;12.07;;;10.88;;
40286;SDS011;25998;46.604;13.610;2023-08-20T05:44:28;11.35;;;10.18;;
40286;SDS011;25998;46.604;13.610;2023-08-20T05:47:39;11.93;;;10.30;;
40286;SDS011;25998;46.604;13.610;2023-08-20T05:50:50;11.85;;;10.45;;
40286;SDS011;25998;46.604;13.610;2023-08-20T05:54:01;11.52;;;10.52;;
40286;SDS011;25998;46.604;13.610;2023-08-20T05:57:12;10.88;;;9.80;;
40286;SDS011;25998;46.604;13.610;2023-08-20T06:00:23;11.23;;;9.57;;
40286;SDS011;25998;46.604;13.610;2023-08-20T06:03:33;10.40;;;9.40;;
40286;SDS011;25998;46.604;13.610;2023-08-20T06:06:44;14.48;;;11.05;;
40286;SDS011;25998;46.604;13.610;2023-08-20T06:09:55;10.60;;;9.63;;
40286;SDS011;25998;46.604;13.610;2023-08-20T06:13:06;11.52;;;10.43;;
40286;SDS011;25998;46.604;13.610;2023-08-20T06:16:17;12.98;;;11.45;;
40286;SDS011;25998;46.604;13.610;2023-08-20T06:19:28;11.73;;;10.52;;
40286;SDS011;25998;46.604;13.610;2023-08-20T06:22:40;13.90;;;9.98;;
40286;SDS011;25998;46.604;13.610;2023-08-20T06:25:51;11.38;;;10.27;;
40286;SDS011;25998;46.604;13.610;2023-08-20T06:29:01;12.02;;;10.80;;
40286;SDS011;25998;46.604;13.610;2023-08-20T06:32:12;11.05;;;9.70;;
40286;SDS011;25998;46.604;13.610;2023-08-20T06:35:23;12.35;;;10.77;;
40286;SDS011;25998;46.604;13.610;2023-08-20T06:38:34;11.98;;;10.50;;
40286;SDS011;25998;46.604;13.610;2023-08-20T06:41:45;11.63;;;10.52;;
40286;SDS011;25998;46.604;13.610;2023-08-20T06:44:56;12.15;;;10.38;;
40286;SDS011;25998;46.604;13.610;2023-08-20T06:48:07;10.68;;;9.77;;
40286;SDS011;25998;46.604;13.610;2023-08-20T06:51:20;11.70;;;10.52;;
40286;SDS011;25998;46.604;13.610;2023-08-20T06:54:32;10.73;;;9.52;;
40286;SDS011;25998;46.604;13.610;2023-08-20T06:57:43;10.07;;;9.18;;
40286;SDS011;25998;46.604;13.610;2023-08-20T07:00:54;10.68;;;9.63;;
40286;SDS011;25998;46.604;13.610;2023-08-20T07:04:05;11.02;;;9.93;;
40286;SDS011;25998;46.604;13.610;2023-08-20T07:07:16;10.05;;;9.13;;
40286;SDS011;25998;46.604;13.610;2023-08-20T07:10:27;14.07;;;10.23;;
40286;SDS011;25998;46.604;13.610;2023-08-20T07:13:38;9.63;;;8.73;;
40286;SDS011;25998;46.604;13.610;2023-08-20T07:16:48;9.50;;;8.68;;
40286;SDS011;25998;46.604;13.610;2023-08-20T07:19:59;9.70;;;8.82;;
40286;SDS011;25998;46.604;13.610;2023-08-20T07:23:11;10.10;;;8.60;;
40286;SDS011;25998;46.604;13.610;2023-08-20T07:26:22;9.40;;;8.50;;
40286;SDS011;25998;46.604;13.610;2023-08-20T07:29:33;10.18;;;8.65;;
40286;SDS011;25998;46.604;13.610;2023-08-20T07:32:44;9.38;;;8.38;;
40286;SDS011;25998;46.604;13.610;2023-08-20T07:35:54;8.90;;;8.10;;
40286;SDS011;25998;46.604;13.610;2023-08-20T07:39:05;9.30;;;8.07;;
40286;SDS011;25998;46.604;13.610;2023-08-20T07:42:16;9.30;;;8.40;;
40286;SDS011;25998;46.604;13.610;2023-08-20T07:45:28;8.75;;;8.02;;
40286;SDS011;25998;46.604;13.610;2023-08-20T07:48:39;11.15;;;8.32;;
40286;SDS011;25998;46.604;13.610;2023-08-20T07:51:50;9.68;;;7.93;;
40286;SDS011;25998;46.604;13.610;2023-08-20T07:55:02;9.73;;;8.05;;
40286;SDS011;25998;46.604;13.610;2023-08-20T07:58:13;8.68;;;7.88;;
40286;SDS011;25998;46.604;13.610;2023-08-20T08:01:24;11.50;;;8.32;;
40286;SDS011;25998;46.604;13.610;2023-08-20T08:04:35;20.70;;;11.90;;
40286;SDS011;25998;46.604;13.610;2023-08-20T08:07:46;9.68;;;8.07;;
40286;SDS011;25998;46.604;13.610;2023-08-20T08:10:57;16.70;;;8.73;;
40286;SDS011;25998;46.604;13.610;2023-08-20T08:14:08;8.73;;;7.90;;
40286;SDS011;25998;46.604;13.610;2023-08-20T08:17:19;8.60;;;7.70;;
40286;SDS011;25998;46.604;13.610;2023-08-20T08:20:30;8.13;;;7.43;;
40286;SDS011;25998;46.604;13.610;2023-08-20T08:23:41;8.25;;;7.50;;
40286;SDS011;25998;46.604;13.610;2023-08-20T08:26:52;8.27;;;7.47;;
40286;SDS011;25998;46.604;13.610;2023-08-20T08:30:03;8.75;;;7.30;;
40286;SDS011;25998;46.604;13.610;2023-08-20T08:33:14;8.15;;;7.00;;
40286;SDS011;25998;46.604;13.610;2023-08-20T08:36:25;7.75;;;6.97;;
40286;SDS011;25998;46.604;13.610;2023-08-20T08:39:36;9.07;;;7.47;;
40286;SDS011;25998;46.604;13.610;2023-08-20T08:42:47;8.55;;;7.47;;
40286;SDS011;25998;46.604;13.610;2023-08-20T08:46:02;7.55;;;6.65;;
40286;SDS011;25998;46.604;13.610;2023-08-20T08:49:23;8.00;;;6.80;;
40286;SDS011;25998;46.604;13.610;2023-08-20T08:52:36;7.60;;;6.80;;
40286;SDS011;25998;46.604;13.610;2023-08-20T08:55:49;8.13;;;7.32;;
40286;SDS011;25998;46.604;13.610;2023-08-20T08:59:00;10.55;;;7.28;;
40286;SDS011;25998;46.604;13.610;2023-08-20T09:02:11;8.25;;;7.00;;
40286;SDS011;25998;46.604;13.610;2023-08-20T09:05:23;7.90;;;7.15;;
40286;SDS011;25998;46.604;13.610;2023-08-20T09:08:34;7.72;;;6.60;;
40286;SDS011;25998;46.604;13.610;2023-08-20T09:11:45;7.60;;;6.80;;
40286;SDS011;25998;46.604;13.610;2023-08-20T09:14:56;9.30;;;7.05;;
40286;SDS011;25998;46.604;13.610;2023-08-20T09:18:10;8.95;;;8.05;;
40286;SDS011;25998;46.604;13.610;2023-08-20T09:21:21;8.30;;;7.07;;
40286;SDS011;25998;46.604;13.610;2023-08-20T09:24:40;8.47;;;7.33;;
40286;SDS011;25998;46.604;13.610;2023-08-20T09:27:54;7.72;;;6.90;;
40286;SDS011;25998;46.604;13.610;2023-08-20T09:31:05;8.30;;;7.47;;
40286;SDS011;25998;46.604;13.610;2023-08-20T09:34:16;8.32;;;7.05;;
40286;SDS011;25998;46.604;13.610;2023-08-20T09:37:26;8.35;;;7.47;;
40286;SDS011;25998;46.604;13.610;2023-08-20T09:40:37;7.97;;;7.30;;
40286;SDS011;25998;46.604;13.610;2023-08-20T09:43:51;7.72;;;7.03;;
40286;SDS011;25998;46.604;13.610;2023-08-20T09:47:09;8.45;;;7.75;;
40286;SDS011;25998;46.604;13.610;2023-08-20T09:50:24;9.27;;;7.68;;
40286;SDS011;25998;46.604;13.610;2023-08-20T09:53:51;8.55;;;7.63;;
40286;SDS011;25998;46.604;13.610;2023-08-20T09:57:12;9.13;;;8.30;;
40286;SDS011;25998;46.604;13.610;2023-08-20T10:00:27;8.88;;;8.07;;
40286;SDS011;25998;46.604;13.610;2023-08-20T10:03:39;8.25;;;7.40;;
40286;SDS011;25998;46.604;13.610;2023-08-20T10:06:51;9.20;;;7.88;;
40286;SDS011;25998;46.604;13.610;2023-08-20T10:10:05;7.63;;;6.93;;
40286;SDS011;25998;46.604;13.610;2023-08-20T10:13:18;8.00;;;7.18;;
40286;SDS011;25998;46.604;13.610;2023-08-20T10:16:29;7.97;;;7.20;;
40286;SDS011;25998;46.604;13.610;2023-08-20T10:19:43;8.25;;;7.38;;
40286;SDS011;25998;46.604;13.610;2023-08-20T10:22:54;7.40;;;6.70;;
40286;SDS011;25998;46.604;13.610;2023-08-20T10:26:12;7.70;;;7.00;;
40286;SDS011;25998;46.604;13.610;2023-08-20T10:32:50;18.92;;;8.05;;
40286;SDS011;25998;46.604;13.610;2023-08-20T10:36:15;7.00;;;5.80;;
40286;SDS011;25998;46.604;13.610;2023-08-20T10:39:29;8.63;;;6.38;;
40286;SDS011;25998;46.604;13.610;2023-08-20T10:42:41;6.53;;;6.00;;
40286;SDS011;25998;46.604;13.610;2023-08-20T10:46:06;8.10;;;5.63;;
40286;SDS011;25998;46.604;13.610;2023-08-20T10:49:17;6.03;;;5.30;;
40286;SDS011;25998;46.604;13.610;2023-08-20T10:52:28;7.40;;;5.88;;
40286;SDS011;25998;46.604;13.610;2023-08-20T10:55:39;7.07;;;6.10;;
40286;SDS011;25998;46.604;13.610;2023-08-20T10:58:58;6.57;;;5.95;;
40286;SDS011;25998;46.604;13.610;2023-08-20T11:02:17;5.93;;;5.32;;
40286;SDS011;25998;46.604;13.610;2023-08-20T11:05:28;6.85;;;5.90;;
40286;SDS011;25998;46.604;13.610;2023-08-20T11:08:39;7.32;;;5.90;;
40286;SDS011;25998;46.604;13.610;2023-08-20T11:11:53;6.28;;;5.70;;
40286;SDS011;25998;46.604;13.610;2023-08-20T11:15:05;6.57;;;5.93;;
40286;SDS011;25998;46.604;13.610;2023-08-20T11:18:17;6.00;;;5.43;;
40286;SDS011;25998;46.604;13.610;2023-08-20T11:21:28;10.02;;;6.45;;
40286;SDS011;25998;46.604;13.610;2023-08-20T11:24:42;7.25;;;5.63;;
40286;SDS011;25998;46.604;13.610;2023-08-20T11:27:53;6.65;;;6.00;;
40286;SDS011;25998;46.604;13.610;2023-08-20T11:31:03;7.28;;;6.20;;
40286;SDS011;25998;46.604;13.610;2023-08-20T11:34:14;6.35;;;5.75;;
40286;SDS011;25998;46.604;13.610;2023-08-20T11:37:27;33.42;;;7.75;;
40286;SDS011;25998;46.604;13.610;2023-08-20T11:40:39;7.45;;;6.00;;
40286;SDS011;25998;46.604;13.610;2023-08-20T11:43:50;6.72;;;6.00;;
40286;SDS011;25998;46.604;13.610;2023-08-20T11:47:12;7.70;;;6.03;;
40286;SDS011;25998;46.604;13.610;2023-08-20T11:50:24;7.80;;;5.28;;
40286;SDS011;25998;46.604;13.610;2023-08-20T11:53:35;5.13;;;4.68;;
40286;SDS011;25998;46.604;13.610;2023-08-20T11:56:50;5.60;;;5.05;;
40286;SDS011;25998;46.604;13.610;2023-08-20T12:00:04;6.13;;;4.90;;
40286;SDS011;25998;46.604;13.610;2023-08-20T12:03:23;8.70;;;5.70;;
40286;SDS011;25998;46.604;13.610;2023-08-20T12:06:40;5.45;;;4.95;;
40286;SDS011;25998;46.604;13.610;2023-08-20T12:09:55;5.97;;;5.38;;
40286;SDS011;25998;46.604;13.610;2023-08-20T12:13:08;6.25;;;5.75;;
40286;SDS011;25998;46.604;13.610;2023-08-20T12:16:21;5.78;;;5.28;;
40286;SDS011;25998;46.604;13.610;2023-08-20T12:19:33;10.73;;;5.70;;
40286;SDS011;25998;46.604;13.610;2023-08-20T12:22:43;6.63;;;6.03;;
40286;SDS011;25998;46.604;13.610;2023-08-20T12:25:54;6.10;;;5.43;;
40286;SDS011;25998;46.604;13.610;2023-08-20T12:29:05;5.53;;;5.03;;
40286;SDS011;25998;46.604;13.610;2023-08-20T12:32:17;5.88;;;5.38;;
40286;SDS011;25998;46.604;13.610;2023-08-20T12:35:28;6.70;;;5.45;;
40286;SDS011;25998;46.604;13.610;2023-08-20T12:38:39;6.22;;;5.50;;
40286;SDS011;25998;46.604;13.610;2023-08-20T12:41:51;15.18;;;6.90;;
40286;SDS011;25998;46.604;13.610;2023-08-20T12:45:02;14.73;;;6.32;;
40286;SDS011;25998;46.604;13.610;2023-08-20T12:48:14;12.55;;;7.80;;
40286;SDS011;25998;46.604;13.610;2023-08-20T12:51:25;13.93;;;7.35;;
40286;SDS011;25998;46.604;13.610;2023-08-20T12:54:37;7.03;;;5.70;;
40286;SDS011;25998;46.604;13.610;2023-08-20T12:57:57;6.00;;;5.40;;
40286;SDS011;25998;46.604;13.610;2023-08-20T13:01:08;6.47;;;5.70;;
40286;SDS011;25998;46.604;13.610;2023-08-20T13:04:19;15.50;;;8.80;;
40286;SDS011;25998;46.604;13.610;2023-08-20T13:07:31;6.72;;;6.10;;
40286;SDS011;25998;46.604;13.610;2023-08-20T13:10:42;7.15;;;5.47;;
40286;SDS011;25998;46.604;13.610;2023-08-20T13:14:02;11.55;;;6.60;;
40286;SDS011;25998;46.604;13.610;2023-08-20T13:17:14;6.78;;;6.07;;
40286;SDS011;25998;46.604;13.610;2023-08-20T13:20:25;5.88;;;5.32;;
40286;SDS011;25998;46.604;13.610;2023-08-20T13:23:37;6.00;;;5.50;;
40286;SDS011;25998;46.604;13.610;2023-08-20T13:26:48;6.53;;;5.65;;
40286;SDS011;25998;46.604;13.610;2023-08-20T13:29:59;6.00;;;5.40;;
40286;SDS011;25998;46.604;13.610;2023-08-20T13:33:12;5.63;;;5.13;;
40286;SDS011;25998;46.604;13.610;2023-08-20T13:36:25;8.15;;;5.07;;
40286;SDS011;25998;46.604;13.610;2023-08-20T13:39:36;6.10;;;5.50;;
40286;SDS011;25998;46.604;13.610;2023-08-20T13:42:47;5.72;;;5.20;;
40286;SDS011;25998;46.604;13.610;2023-08-20T13:45:58;5.82;;;5.25;;
40286;SDS011;25998;46.604;13.610;2023-08-20T13:49:09;6.13;;;5.18;;
40286;SDS011;25998;46.604;13.610;2023-08-20T13:52:20;7.70;;;5.70;;
40286;SDS011;25998;46.604;13.610;2023-08-20T13:55:31;6.38;;;5.78;;
40286;SDS011;25998;46.604;13.610;2023-08-20T13:58:42;5.53;;;5.03;;
40286;SDS011;25998;46.604;13.610;2023-08-20T14:01:53;8.82;;;6.05;;
40286;SDS011;25998;46.604;13.610;2023-08-20T14:05:04;5.40;;;4.90;;
40286;SDS011;25998;46.604;13.610;2023-08-20T14:08:15;6.43;;;4.93;;
40286;SDS011;25998;46.604;13.610;2023-08-20T14:11:26;5.32;;;4.80;;
40286;SDS011;25998;46.604;13.610;2023-08-20T14:14:37;5.88;;;5.30;;
40286;SDS011;25998;46.604;13.610;2023-08-20T14:17:47;6.53;;;5.35;;
40286;SDS011;25998;46.604;13.610;2023-08-20T14:20:58;70.72;;;9.50;;
40286;SDS011;25998;46.604;13.610;2023-08-20T14:24:09;7.18;;;5.53;;
40286;SDS011;25998;46.604;13.610;2023-08-20T14:27:20;11.43;;;5.63;;
40286;SDS011;25998;46.604;13.610;2023-08-20T14:30:35;6.22;;;5.32;;
40286;SDS011;25998;46.604;13.610;2023-08-20T14:33:47;5.75;;;5.07;;
40286;SDS011;25998;46.604;13.610;2023-08-20T14:36:58;6.57;;;5.43;;
40286;SDS011;25998;46.604;13.610;2023-08-20T14:40:09;7.50;;;5.30;;
40286;SDS011;25998;46.604;13.610;2023-08-20T14:43:20;5.93;;;5.43;;
40286;SDS011;25998;46.604;13.610;2023-08-20T14:46:31;14.88;;;5.80;;
40286;SDS011;25998;46.604;13.610;2023-08-20T14:49:42;9.30;;;5.63;;
40286;SDS011;25998;46.604;13.610;2023-08-20T14:52:53;6.10;;;5.50;;
40286;SDS011;25998;46.604;13.610;2023-08-20T14:56:03;6.78;;;5.75;;
40286;SDS011;25998;46.604;13.610;2023-08-20T14:59:14;6.57;;;5.97;;
40286;SDS011;25998;46.604;13.610;2023-08-20T15:02:25;9.32;;;5.95;;
40286;SDS011;25998;46.604;13.610;2023-08-20T15:05:36;6.82;;;5.72;;
40286;SDS011;25998;46.604;13.610;2023-08-20T15:08:47;7.80;;;5.60;;
40286;SDS011;25998;46.604;13.610;2023-08-20T15:11:58;7.18;;;5.95;;
40286;SDS011;25998;46.604;13.610;2023-08-20T15:15:09;6.03;;;5.53;;
40286;SDS011;25998;46.604;13.610;2023-08-20T15:18:20;6.20;;;5.68;;
40286;SDS011;25998;46.604;13.610;2023-08-20T15:21:31;13.35;;;6.15;;
40286;SDS011;25998;46.604;13.610;2023-08-20T15:24:42;6.15;;;5.65;;
40286;SDS011;25998;46.604;13.610;2023-08-20T15:27:53;7.57;;;5.72;;
40286;SDS011;25998;46.604;13.610;2023-08-20T15:31:04;6.63;;;6.03;;
40286;SDS011;25998;46.604;13.610;2023-08-20T15:34:15;6.70;;;6.03;;
40286;SDS011;25998;46.604;13.610;2023-08-20T15:37:25;7.03;;;5.95;;
40286;SDS011;25998;46.604;13.610;2023-08-20T15:40:39;8.93;;;6.82;;
40286;SDS011;25998;46.604;13.610;2023-08-20T15:43:50;6.93;;;6.22;;
40286;SDS011;25998;46.604;13.610;2023-08-20T15:47:01;7.22;;;6.50;;
40286;SDS011;25998;46.604;13.610;2023-08-20T15:50:12;7.45;;;6.15;;
40286;SDS011;25998;46.604;13.610;2023-08-20T15:53:22;7.05;;;6.03;;
40286;SDS011;25998;46.604;13.610;2023-08-20T15:56:37;7.25;;;6.55;;
40286;SDS011;25998;46.604;13.610;2023-08-20T15:59:49;7.07;;;6.47;;
40286;SDS011;25998;46.604;13.610;2023-08-20T16:03:00;7.15;;;6.45;;
40286;SDS011;25998;46.604;13.610;2023-08-20T16:06:11;8.25;;;6.57;;
40286;SDS011;25998;46.604;13.610;2023-08-20T16:09:22;9.13;;;6.70;;
40286;SDS011;25998;46.604;13.610;2023-08-20T16:12:33;7.00;;;6.40;;
40286;SDS011;25998;46.604;13.610;2023-08-20T16:15:44;7.95;;;7.15;;
40286;SDS011;25998;46.604;13.610;2023-08-20T16:18:55;8.52;;;7.65;;
40286;SDS011;25998;46.604;13.610;2023-08-20T16:22:06;8.43;;;7.68;;
40286;SDS011;25998;46.604;13.610;2023-08-20T16:25:17;7.97;;;7.28;;
40286;SDS011;25998;46.604;13.610;2023-08-20T16:28:28;8.00;;;7.30;;
40286;SDS011;25998;46.604;13.610;2023-08-20T16:31:39;9.35;;;7.28;;
40286;SDS011;25998;46.604;13.610;2023-08-20T16:34:50;9.20;;;7.45;;
40286;SDS011;25998;46.604;13.610;2023-08-20T16:38:01;9.38;;;7.45;;
40286;SDS011;25998;46.604;13.610;2023-08-20T16:41:13;9.95;;;8.05;;
40286;SDS011;25998;46.604;13.610;2023-08-20T16:44:23;10.75;;;8.70;;
40286;SDS011;25998;46.604;13.610;2023-08-20T16:47:34;9.45;;;7.72;;
40286;SDS011;25998;46.604;13.610;2023-08-20T16:50:45;9.52;;;7.80;;
40286;SDS011;25998;46.604;13.610;2023-08-20T16:53:57;8.77;;;7.90;;
40286;SDS011;25998;46.604;13.610;2023-08-20T16:57:08;10.48;;;8.32;;
40286;SDS011;25998;46.604;13.610;2023-08-20T17:00:19;9.73;;;8.70;;
40286;SDS011;25998;46.604;13.610;2023-08-20T17:03:30;9.52;;;8.55;;
40286;SDS011;25998;46.604;13.610;2023-08-20T17:06:41;8.75;;;7.95;;
40286;SDS011;25998;46.604;13.610;2023-08-20T17:09:53;9.68;;;8.18;;
40286;SDS011;25998;46.604;13.610;2023-08-20T17:13:04;10.13;;;8.18;;
40286;SDS011;25998;46.604;13.610;2023-08-20T17:16:15;9.80;;;8.57;;
40286;SDS011;25998;46.604;13.610;2023-08-20T17:19:26;9.32;;;8.38;;
40286;SDS011;25998;46.604;13.610;2023-08-20T17:22:36;8.68;;;7.57;;
40286;SDS011;25998;46.604;13.610;2023-08-20T17:25:47;11.05;;;8.85;;
40286;SDS011;25998;46.604;13.610;2023-08-20T17:28:58;9.05;;;8.15;;
40286;SDS011;25998;46.604;13.610;2023-08-20T17:32:09;9.13;;;8.18;;
40286;SDS011;25998;46.604;13.610;2023-08-20T17:35:20;10.50;;;8.93;;
40286;SDS011;25998;46.604;13.610;2023-08-20T17:38:31;9.35;;;8.43;;
40286;SDS011;25998;46.604;13.610;2023-08-20T17:41:43;9.45;;;8.50;;
40286;SDS011;25998;46.604;13.610;2023-08-20T17:44:55;10.32;;;8.38;;
40286;SDS011;25998;46.604;13.610;2023-08-20T17:48:06;11.00;;;8.93;;
40286;SDS011;25998;46.604;13.610;2023-08-20T17:51:16;9.68;;;8.68;;
40286;SDS011;25998;46.604;13.610;2023-08-20T17:54:27;11.07;;;8.90;;
40286;SDS011;25998;46.604;13.610;2023-08-20T17:57:38;10.63;;;8.55;;
40286;SDS011;25998;46.604;13.610;2023-08-20T18:00:49;9.50;;;8.70;;
40286;SDS011;25998;46.604;13.610;2023-08-20T18:04:00;10.75;;;8.20;;
40286;SDS011;25998;46.604;13.610;2023-08-20T18:07:11;9.57;;;8.65;;
40286;SDS011;25998;46.604;13.610;2023-08-20T18:10:21;11.63;;;8.43;;
40286;SDS011;25998;46.604;13.610;2023-08-20T18:13:33;10.90;;;8.80;;
40286;SDS011;25998;46.604;13.610;2023-08-20T18:16:45;10.43;;;8.98;;
40286;SDS011;25998;46.604;13.610;2023-08-20T18:19:55;9.43;;;8.45;;
40286;SDS011;25998;46.604;13.610;2023-08-20T18:23:07;12.05;;;9.30;;
40286;SDS011;25998;46.604;13.610;2023-08-20T18:26:18;10.63;;;9.52;;
40286;SDS011;25998;46.604;13.610;2023-08-20T18:29:28;10.70;;;8.75;;
40286;SDS011;25998;46.604;13.610;2023-08-20T18:32:39;10.20;;;9.07;;
40286;SDS011;25998;46.604;13.610;2023-08-20T18:35:56;9.55;;;8.65;;
40286;SDS011;25998;46.604;13.610;2023-08-20T18:39:07;9.95;;;9.07;;
40286;SDS011;25998;46.604;13.610;2023-08-20T18:42:20;9.73;;;8.82;;
40286;SDS011;25998;46.604;13.610;2023-08-20T18:45:30;9.35;;;8.55;;
40286;SDS011;25998;46.604;13.610;2023-08-20T18:48:41;10.50;;;9.50;;
40286;SDS011;25998;46.604;13.610;2023-08-20T18:51:52;11.23;;;9.20;;
40286;SDS011;25998;46.604;13.610;2023-08-20T18:55:03;10.18;;;9.30;;